Pagina principale
METAR-TAF:

METAR-TAF

Aeroporti :

Aeroporto di Basilea-Mulhouse-Friburgo

Basilea-Mulhouse, Francia

latitudine: 47-36N, longitudine: 007-31E, altezza: 270 m

Osservazione

Il bollettino è stato emesso 41 minuti fa, alle 23:30 UTC
Vento 7 kt da sud
Temperature 5°C
Umidità 65%
Pressione 1023 hPa
Visibilità 10 km o più
nessuna nube inferiore a 1500 m e nessun cumulonembo

METAR: LFSB 172330Z AUTO 18007KT CAVOK 05/M01 Q1023 NOSIG

Ora: 01:11 (00:11 UTC)

Previsione

Il bollettino è stato emesso 1 ora e 11 minuti fa, alle 23:00 UTC
Previsione valida dal 18 alle 00 UTC al 18 alle 24 UTC
Vento 5 kt da sud/sud-ovest
Visibilità 10 km o più
nessuna nube inferiore a 1500 m e nessun cumulonembo

TAF: LFSB 172300Z 1800/1824 20005KT CAVOK

Osservazioni e previsioni meteorologiche di più di 4000 aeroporti (messaggi METAR e TAF).

Le stazioni disponibili sono rappresentate dai dischi gialli e rossi sulla carta.

Puntare il mouse per vedere il nome della stazione.

Clicca sopra per visualizzare le osservazioni e previsioni meteorologiche.

Per cambiare la mappa : fare clic sui pulsanti verdi con una croce nera per ingrandire, il pulsante verde con un trattino per diminuire, o sulla freccia verde per le mappe adiacenti.


METAR-TAF: